Time;durP1;ratioP1;P1;durP2;ratioP2;P2;SDS_P1;SDS_P2;PMS_P1;PMS_P2;Temp;Humidity;BMP_temperature;BMP_pressure;BME280_temperature;BME280_humidity;BME280_pressure;Samples;Min_cycle;Max_cycle;Signal;HPM_P1;HPM_P2
2023/10/08 00:01:06;;;;;;;11.47;2.93;;;;;;;;;;5084807;28;20045;-68
2023/10/08 00:03:33;;;;;;;8.90;2.00;;;;;;;;;;5059226;28;20313;-68
2023/10/08 00:05:58;;;;;;;11.38;1.90;;;;;;;;;;5055204;28;20025;-66
2023/10/08 00:08:23;;;;;;;7.75;1.98;;;;;;;;;;5055637;28;20493;-63
2023/10/08 00:10:49;;;;;;;10.68;2.22;;;;;;;;;;5055281;28;20025;-64
2023/10/08 00:13:18;;;;;;;7.82;2.15;;;;;;;;;;5055488;28;20437;-63
2023/10/08 00:15:54;;;;;;;7.57;2.03;;;;;;;;;;5055428;28;20017;-63
2023/10/08 00:18:20;;;;;;;12.15;2.17;;;;;;;;;;5055411;28;20032;-63
2023/10/08 00:20:49;;;;;;;13.15;2.03;;;;;;;;;;5055182;28;20029;-63
2023/10/08 00:23:17;;;;;;;8.05;1.95;;;;;;;;;;5055161;28;20029;-64
2023/10/08 00:25:47;;;;;;;7.53;1.90;;;;;;;;;;5054850;28;20375;-63
2023/10/08 00:28:13;;;;;;;12.57;2.50;;;;;;;;;;5055013;28;20060;-62
2023/10/08 00:30:41;;;;;;;8.23;1.92;;;;;;;;;;5055001;28;20521;-67
2023/10/08 00:33:08;;;;;;;8.77;1.88;;;;;;;;;;5054927;28;20036;-63
2023/10/08 00:35:41;;;;;;;7.20;2.20;;;;;;;;;;5054713;28;20033;-63
2023/10/08 00:38:17;;;;;;;7.57;1.73;;;;;;;;;;5054971;28;20121;-63
2023/10/08 00:40:46;;;;;;;8.77;2.28;;;;;;;;;;5062408;28;20020;-65
2023/10/08 00:43:35;;;;;;;7.03;1.95;;;;;;;;;;5074936;28;20033;-62
2023/10/08 00:46:01;;;;;;;8.18;2.20;;;;;;;;;;5074847;28;20078;-65
2023/10/08 00:48:28;;;;;;;8.82;2.25;;;;;;;;;;5054451;28;20025;-64
2023/10/08 00:54:17;;;;;;;7.57;1.98;;;;;;;;;;5070305;28;20129;-64
2023/10/08 00:56:57;;;;;;;8.30;2.15;;;;;;;;;;5072440;28;20037;-63
2023/10/08 00:59:23;;;;;;;9.75;2.20;;;;;;;;;;5072348;28;20116;-67
2023/10/08 01:02:05;;;;;;;9.77;2.40;;;;;;;;;;5061143;28;20033;-64
2023/10/08 01:04:34;;;;;;;12.25;1.92;;;;;;;;;;5052162;28;20037;-68
2023/10/08 01:07:10;;;;;;;5.93;1.63;;;;;;;;;;5052354;28;20393;-68
2023/10/08 01:09:37;;;;;;;8.55;2.40;;;;;;;;;;5052228;28;20041;-65
2023/10/08 01:14:49;;;;;;;7.00;1.92;;;;;;;;;;5051219;28;20116;-67
2023/10/08 01:17:16;;;;;;;11.80;1.75;;;;;;;;;;5051793;28;20455;-66
2023/10/08 01:19:45;;;;;;;7.18;2.17;;;;;;;;;;5052000;28;20079;-68
2023/10/08 01:22:17;;;;;;;7.22;2.20;;;;;;;;;;5051907;28;20037;-68
2023/10/08 01:24:43;;;;;;;5.75;1.65;;;;;;;;;;5051807;28;20032;-67
2023/10/08 01:27:11;;;;;;;9.90;1.85;;;;;;;;;;5051618;28;20033;-66
2023/10/08 01:29:38;;;;;;;8.32;2.17;;;;;;;;;;5041977;28;20042;-67
2023/10/08 01:32:09;;;;;;;7.65;2.53;;;;;;;;;;5033706;28;20385;-67
2023/10/08 01:34:36;;;;;;;8.18;1.70;;;;;;;;;;5033890;28;20025;-67
2023/10/08 01:37:08;;;;;;;7.82;2.40;;;;;;;;;;5033930;28;20079;-64
2023/10/08 01:39:34;;;;;;;4.32;1.75;;;;;;;;;;5033713;28;20132;-64
2023/10/08 01:41:59;;;;;;;4.80;1.40;;;;;;;;;;5069956;28;20104;-64
2023/10/08 01:44:25;;;;;;;12.00;2.10;;;;;;;;;;5073624;28;20107;-66
2023/10/08 01:46:50;;;;;;;5.47;1.70;;;;;;;;;;5066595;28;20029;-64
2023/10/08 01:49:21;;;;;;;3.42;1.60;;;;;;;;;;5053437;28;20029;-64
2023/10/08 01:51:46;;;;;;;6.90;1.67;;;;;;;;;;5052975;28;20084;-64
2023/10/08 01:54:17;;;;;;;6.75;1.60;;;;;;;;;;5067607;28;20067;-65
2023/10/08 01:56:43;;;;;;;7.03;2.00;;;;;;;;;;5073398;28;20473;-64
2023/10/08 01:59:15;;;;;;;4.63;1.80;;;;;;;;;;5073195;28;20039;-64
2023/10/08 02:01:42;;;;;;;5.45;1.88;;;;;;;;;;5063106;28;20386;-66
2023/10/08 02:04:12;;;;;;;6.13;1.70;;;;;;;;;;5053088;28;20037;-65
2023/10/08 02:06:41;;;;;;;7.27;1.63;;;;;;;;;;5053264;28;20049;-66
2023/10/08 02:09:07;;;;;;;5.63;1.60;;;;;;;;;;5053213;28;20044;-67
2023/10/08 02:11:50;;;;;;;5.75;1.58;;;;;;;;;;5053032;28;20055;-65
2023/10/08 02:14:16;;;;;;;5.85;1.60;;;;;;;;;;5053088;28;20032;-65
2023/10/08 02:16:43;;;;;;;4.13;1.40;;;;;;;;;;5053053;28;20048;-64
2023/10/08 02:19:10;;;;;;;7.45;1.63;;;;;;;;;;5053047;28;20528;-67
2023/10/08 02:21:39;;;;;;;7.53;1.73;;;;;;;;;;5053015;28;20047;-66
2023/10/08 02:24:08;;;;;;;5.95;1.50;;;;;;;;;;5052833;28;20186;-64
2023/10/08 02:26:34;;;;;;;6.15;1.50;;;;;;;;;;5052590;28;20589;-68
2023/10/08 02:29:01;;;;;;;3.92;1.30;;;;;;;;;;5052780;28;20033;-67
2023/10/08 02:31:27;;;;;;;6.88;1.45;;;;;;;;;;5052567;28;20024;-68
2023/10/08 02:33:53;;;;;;;6.35;1.60;;;;;;;;;;5051408;28;20025;-64
2023/10/08 02:36:19;;;;;;;4.85;1.83;;;;;;;;;;5052717;28;20043;-68
2023/10/08 02:38:45;;;;;;;5.22;1.65;;;;;;;;;;5052928;28;20451;-66
2023/10/08 02:41:16;;;;;;;5.18;2.00;;;;;;;;;;5064015;28;20458;-67
2023/10/08 02:43:42;;;;;;;3.45;1.30;;;;;;;;;;5072748;28;20087;-68
2023/10/08 02:46:10;;;;;;;2.75;1.30;;;;;;;;;;5071827;28;20024;-67
2023/10/08 02:48:35;;;;;;;5.15;1.92;;;;;;;;;;5052433;28;20029;-68
2023/10/08 02:51:07;;;;;;;4.85;1.60;;;;;;;;;;5052417;28;20459;-67
2023/10/08 02:53:33;;;;;;;9.25;1.52;;;;;;;;;;5061108;28;20481;-68
2023/10/08 02:55:58;;;;;;;4.55;1.75;;;;;;;;;;5072734;28;20029;-68
2023/10/08 02:58:25;;;;;;;6.13;1.77;;;;;;;;;;5072432;28;20458;-68
2023/10/08 03:00:53;;;;;;;5.93;1.40;;;;;;;;;;5069472;28;20037;-64
2023/10/08 03:03:18;;;;;;;4.00;1.60;;;;;;;;;;5052340;28;20025;-64
2023/10/08 03:05:49;;;;;;;4.30;1.67;;;;;;;;;;5052524;28;20021;-68
2023/10/08 03:08:20;;;;;;;5.07;1.35;;;;;;;;;;5052513;28;20467;-65
2023/10/08 03:10:48;;;;;;;3.25;1.45;;;;;;;;;;5052363;28;20021;-67
2023/10/08 03:13:17;;;;;;;8.73;1.90;;;;;;;;;;5052209;28;20466;-67
2023/10/08 03:16:07;;;;;;;5.47;1.67;;;;;;;;;;5052378;28;20025;-68
2023/10/08 03:18:36;;;;;;;2.92;1.45;;;;;;;;;;5052533;28;20078;-67
2023/10/08 03:21:20;;;;;;;7.25;1.77;;;;;;;;;;5052438;28;20040;-67
2023/10/08 03:23:50;;;;;;;4.65;1.70;;;;;;;;;;5051972;28;20036;-66
2023/10/08 03:28:59;;;;;;;10.35;3.45;;;;;;;;;;5052046;28;20428;-68
2023/10/08 03:34:18;;;;;;;10.38;3.80;;;;;;;;;;5052012;28;20024;-67
2023/10/08 03:36:44;;;;;;;9.82;4.10;;;;;;;;;;5052304;28;20029;-67
2023/10/08 03:39:14;;;;;;;8.55;3.35;;;;;;;;;;5054886;28;20032;-68
2023/10/08 03:41:40;;;;;;;11.40;5.10;;;;;;;;;;5071312;28;20056;-67
2023/10/08 03:44:13;;;;;;;9.48;3.80;;;;;;;;;;5075525;28;20037;-67
2023/10/08 03:46:42;;;;;;;10.98;3.42;;;;;;;;;;5071099;28;20114;-67
2023/10/08 03:51:52;;;;;;;5.65;2.72;;;;;;;;;;5055438;28;20056;-66
2023/10/08 03:54:19;;;;;;;10.15;2.90;;;;;;;;;;5065985;28;20036;-68
2023/10/08 03:56:45;;;;;;;9.45;3.00;;;;;;;;;;5075585;28;20032;-68
2023/10/08 03:59:29;;;;;;;5.35;2.90;;;;;;;;;;5075708;28;20101;-69
2023/10/08 04:02:08;;;;;;;5.30;2.50;;;;;;;;;;5063612;28;20035;-67
2023/10/08 04:04:49;;;;;;;8.40;2.75;;;;;;;;;;5055599;28;20104;-66
2023/10/08 04:10:45;;;;;;;5.95;2.53;;;;;;;;;;5055425;28;20007;-67
2023/10/08 04:12:52;;;;;;;6.25;2.70;;;;;;;;;;5054868;28;20036;-68
2023/10/08 04:15:19;;;;;;;6.80;2.72;;;;;;;;;;5055342;28;20025;-66
2023/10/08 04:17:45;;;;;;;5.28;2.63;;;;;;;;;;5055325;28;20104;-65
2023/10/08 04:20:33;;;;;;;4.65;2.17;;;;;;;;;;5055214;28;20100;-67
2023/10/08 04:23:04;;;;;;;4.38;2.85;;;;;;;;;;5055082;28;20025;-65
2023/10/08 04:25:30;;;;;;;4.15;2.58;;;;;;;;;;5054840;28;20409;-65
2023/10/08 04:28:00;;;;;;;6.07;2.03;;;;;;;;;;5054992;28;20036;-68
2023/10/08 04:30:35;;;;;;;3.58;2.15;;;;;;;;;;5055067;28;20033;-66
2023/10/08 04:33:11;;;;;;;4.18;2.33;;;;;;;;;;5054881;28;20021;-66
2023/10/08 04:35:47;;;;;;;3.90;2.05;;;;;;;;;;5054988;28;20163;-65
2023/10/08 04:38:23;;;;;;;6.00;2.08;;;;;;;;;;5055038;28;20032;-68
2023/10/08 04:40:53;;;;;;;4.72;2.22;;;;;;;;;;5063161;28;20025;-64
2023/10/08 04:43:25;;;;;;;4.75;2.20;;;;;;;;;;5074868;28;20031;-67
2023/10/08 04:46:05;;;;;;;4.70;1.92;;;;;;;;;;5074798;28;20495;-68
2023/10/08 04:48:32;;;;;;;;;;;;;;;;;;5046225;28;20120;-68
2023/10/08 04:50:59;;;;;;;4.55;1.77;;;;;;;;;;5054517;28;19923;-68
2023/10/08 04:53:51;;;;;;;7.15;2.10;;;;;;;;;;5054645;28;20484;-68
2023/10/08 04:56:19;;;;;;;5.13;2.28;;;;;;;;;;5034372;28;20136;-68
2023/10/08 04:58:46;;;;;;;5.53;2.55;;;;;;;;;;5034603;28;20411;-67
2023/10/08 05:01:27;;;;;;;5.70;1.98;;;;;;;;;;5040200;28;20028;-66
2023/10/08 05:06:50;;;;;;;7.10;2.10;;;;;;;;;;5032369;28;20060;-67
2023/10/08 05:14:55;;;;;;;5.90;2.10;;;;;;;;;;5032292;28;20033;-65
2023/10/08 05:17:09;;;;;;;6.90;2.40;;;;;;;;;;5031529;28;20099;-64
2023/10/08 05:23:16;;;;;;;4.70;1.95;;;;;;;;;;5032153;28;20017;-64
2023/10/08 05:25:10;;;;;;;5.60;2.17;;;;;;;;;;5018755;28;20610;-64
2023/10/08 05:30:25;;;;;;;4.20;1.95;;;;;;;;;;5049200;28;20037;-64
2023/10/08 05:38:15;;;;;;;4.05;1.67;;;;;;;;;;5051231;28;20036;-69
2023/10/08 05:51:44;;;;;;;4.85;1.77;;;;;;;;;;5053192;28;20049;-67
2023/10/08 05:54:24;;;;;;;3.83;1.60;;;;;;;;;;5055903;28;20068;-69
2023/10/08 05:57:07;;;;;;;3.85;1.48;;;;;;;;;;5073391;28;20025;-68
2023/10/08 06:13:16;;;;;;;7.13;1.00;;;;;;;;;;5053049;28;20407;-67
2023/10/08 06:18:11;;;;;;;1.38;0.77;;;;;;;;;;5053086;28;20063;-65
2023/10/08 06:20:39;;;;;;;1.17;0.80;;;;;;;;;;5053050;28;20032;-67
2023/10/08 06:23:07;;;;;;;2.75;0.80;;;;;;;;;;5052718;28;20032;-67
2023/10/08 06:25:44;;;;;;;3.00;0.85;;;;;;;;;;5052874;28;20051;-68
2023/10/08 06:28:11;;;;;;;5.45;0.85;;;;;;;;;;5052737;28;20017;-68
2023/10/08 06:30:40;;;;;;;1.55;0.98;;;;;;;;;;5052794;28;20025;-65
2023/10/08 06:33:09;;;;;;;2.63;0.82;;;;;;;;;;5052790;28;20468;-66
2023/10/08 06:35:35;;;;;;;2.35;0.95;;;;;;;;;;5052743;28;20033;-67
2023/10/08 06:38:07;;;;;;;2.70;0.90;;;;;;;;;;5052446;28;20060;-66
2023/10/08 06:43:24;;;;;;;1.92;1.08;;;;;;;;;;5072829;28;20029;-67
2023/10/08 06:45:53;;;;;;;4.30;0.88;;;;;;;;;;5072668;28;20107;-68
2023/10/08 06:48:20;;;;;;;5.70;0.98;;;;;;;;;;5053649;28;20033;-66
2023/10/08 06:50:50;;;;;;;1.90;1.00;;;;;;;;;;5052244;28;20080;-68
2023/10/08 06:53:18;;;;;;;1.88;0.80;;;;;;;;;;5051995;28;20029;-68
2023/10/08 06:55:44;;;;;;;2.67;0.90;;;;;;;;;;5059516;28;20032;-67
2023/10/08 06:58:14;;;;;;;2.65;0.85;;;;;;;;;;5072316;28;20624;-69
2023/10/08 07:00:40;;;;;;;2.90;0.98;;;;;;;;;;5071105;28;20028;-67
2023/10/08 07:03:14;;;;;;;2.20;0.90;;;;;;;;;;5052439;28;20033;-68
2023/10/08 07:05:41;;;;;;;2.85;0.82;;;;;;;;;;5052129;28;20416;-68
2023/10/08 07:08:13;;;;;;;1.92;1.08;;;;;;;;;;5052345;28;20557;-66
2023/10/08 07:10:41;;;;;;;6.43;1.15;;;;;;;;;;5051897;28;20048;-65
2023/10/08 07:13:07;;;;;;;4.95;0.90;;;;;;;;;;5053558;28;20112;-66
2023/10/08 07:15:38;;;;;;;1.98;1.00;;;;;;;;;;5056362;28;20535;-66
2023/10/08 07:18:12;;;;;;;2.08;0.70;;;;;;;;;;5055975;28;20033;-66
2023/10/08 07:20:39;;;;;;;1.00;0.70;;;;;;;;;;5056086;28;20021;-67
2023/10/08 07:23:09;;;;;;;1.02;0.70;;;;;;;;;;5055584;28;20025;-65
2023/10/08 07:25:37;;;;;;;1.70;0.98;;;;;;;;;;5055568;28;20533;-64
2023/10/08 07:28:12;;;;;;;3.45;1.00;;;;;;;;;;5055555;28;20466;-64
2023/10/08 07:30:43;;;;;;;1.52;0.88;;;;;;;;;;5054439;28;20592;-65
2023/10/08 07:33:17;;;;;;;3.22;1.00;;;;;;;;;;5053274;28;20100;-63
2023/10/08 07:35:57;;;;;;;3.97;1.10;;;;;;;;;;5055290;28;20021;-66
2023/10/08 07:38:27;;;;;;;2.80;1.02;;;;;;;;;;5057934;28;20025;-64
2023/10/08 07:40:55;;;;;;;3.13;0.88;;;;;;;;;;5075560;28;20482;-63
2023/10/08 07:43:20;;;;;;;1.33;0.70;;;;;;;;;;5066454;28;20021;-64
2023/10/08 07:45:46;;;;;;;1.73;0.80;;;;;;;;;;5068268;28;20039;-68
2023/10/08 07:48:13;;;;;;;2.70;0.75;;;;;;;;;;5064866;28;20481;-62
2023/10/08 07:50:45;;;;;;;1.50;0.70;;;;;;;;;;5071667;28;20052;-65
2023/10/08 07:53:17;;;;;;;3.45;0.80;;;;;;;;;;5063351;28;20055;-63
2023/10/08 07:55:45;;;;;;;1.75;0.93;;;;;;;;;;5063167;28;20413;-63
2023/10/08 07:58:11;;;;;;;1.20;0.70;;;;;;;;;;5071341;28;20086;-63
2023/10/08 08:00:40;;;;;;;2.25;1.10;;;;;;;;;;5058132;28;20046;-64
2023/10/08 08:03:06;;;;;;;1.52;0.70;;;;;;;;;;5068483;28;20077;-64
2023/10/08 08:05:31;;;;;;;1.02;0.70;;;;;;;;;;5072815;28;20564;-64
2023/10/08 08:08:05;;;;;;;1.88;0.90;;;;;;;;;;5074124;28;20029;-63
2023/10/08 08:10:38;;;;;;;1.77;0.80;;;;;;;;;;5073768;28;20037;-64
2023/10/08 08:13:05;;;;;;;1.83;0.95;;;;;;;;;;5073377;28;20041;-62
2023/10/08 08:15:33;;;;;;;2.85;0.90;;;;;;;;;;5074799;28;20063;-65
2023/10/08 08:18:00;;;;;;;2.60;0.80;;;;;;;;;;5074777;28;20028;-64
2023/10/08 08:20:34;;;;;;;1.23;0.80;;;;;;;;;;5073284;28;20029;-64
2023/10/08 08:23:06;;;;;;;1.00;0.80;;;;;;;;;;5073334;28;20107;-63
2023/10/08 08:25:45;;;;;;;2.38;0.88;;;;;;;;;;5065681;28;20099;-66
2023/10/08 08:28:16;;;;;;;4.03;0.93;;;;;;;;;;5054119;28;20108;-64
2023/10/08 08:30:46;;;;;;;3.33;0.80;;;;;;;;;;5054013;28;20104;-64
2023/10/08 08:33:12;;;;;;;1.15;0.68;;;;;;;;;;5053911;28;20037;-64
2023/10/08 08:35:38;;;;;;;1.58;0.98;;;;;;;;;;5055042;28;20033;-64
2023/10/08 08:38:05;;;;;;;3.25;1.00;;;;;;;;;;5055085;28;20024;-64
2023/10/08 08:40:32;;;;;;;0.75;0.63;;;;;;;;;;5060718;28;20401;-63
2023/10/08 08:43:02;;;;;;;1.00;0.70;;;;;;;;;;5075009;28;20109;-64
2023/10/08 08:45:31;;;;;;;0.75;0.60;;;;;;;;;;5074984;28;20027;-64
2023/10/08 08:47:57;;;;;;;1.20;0.80;;;;;;;;;;5059017;28;20040;-65
2023/10/08 08:50:22;;;;;;;0.82;0.60;;;;;;;;;;5054844;28;20033;-64
2023/10/08 08:52:48;;;;;;;1.55;0.80;;;;;;;;;;5054490;28;20045;-65
2023/10/08 08:55:14;;;;;;;2.85;0.90;;;;;;;;;;5054775;28;20075;-64
2023/10/08 08:57:51;;;;;;;1.88;1.08;;;;;;;;;;5056993;28;20025;-64
2023/10/08 09:00:18;;;;;;;2.55;1.10;;;;;;;;;;5062902;28;20025;-67
2023/10/08 09:02:44;;;;;;;1.88;0.85;;;;;;;;;;5054158;28;20029;-64
2023/10/08 09:05:23;;;;;;;1.63;0.80;;;;;;;;;;5054628;28;20537;-64
2023/10/08 09:07:55;;;;;;;0.90;0.70;;;;;;;;;;5054537;28;20029;-68
2023/10/08 09:10:27;;;;;;;0.95;0.60;;;;;;;;;;5054458;28;20025;-67
2023/10/08 09:12:52;;;;;;;1.42;0.82;;;;;;;;;;5054463;28;20032;-69
2023/10/08 09:15:22;;;;;;;1.30;0.70;;;;;;;;;;5053963;28;20078;-68
2023/10/08 09:17:48;;;;;;;1.40;0.90;;;;;;;;;;5053053;28;20359;-68
2023/10/08 09:20:13;;;;;;;4.15;0.90;;;;;;;;;;5054224;28;20029;-68
2023/10/08 09:22:39;;;;;;;2.33;1.20;;;;;;;;;;5054096;28;20039;-68
2023/10/08 09:25:07;;;;;;;1.17;0.70;;;;;;;;;;5053922;28;20031;-69
2023/10/08 09:27:32;;;;;;;1.25;0.75;;;;;;;;;;5054224;28;20032;-68
2023/10/08 09:29:59;;;;;;;1.08;0.63;;;;;;;;;;5053930;28;20025;-68
2023/10/08 09:32:24;;;;;;;1.77;0.75;;;;;;;;;;5053839;28;20064;-68
2023/10/08 09:34:52;;;;;;;1.30;0.85;;;;;;;;;;5053851;28;20056;-69
2023/10/08 09:37:21;;;;;;;1.90;0.88;;;;;;;;;;5053467;28;20421;-69
2023/10/08 09:39:49;;;;;;;2.20;0.80;;;;;;;;;;5053991;28;20374;-64
2023/10/08 09:42:14;;;;;;;1.98;0.70;;;;;;;;;;5033809;28;20053;-68
2023/10/08 09:44:40;;;;;;;1.30;0.80;;;;;;;;;;5033672;28;20493;-68
2023/10/08 09:47:12;;;;;;;1.27;0.73;;;;;;;;;;5042176;28;20025;-68
2023/10/08 09:49:44;;;;;;;1.80;0.95;;;;;;;;;;5053687;28;20036;-68
2023/10/08 09:52:10;;;;;;;1.65;0.70;;;;;;;;;;5053341;28;20048;-68
2023/10/08 09:55:02;;;;;;;3.58;0.90;;;;;;;;;;5053541;28;20079;-67
2023/10/08 09:57:27;;;;;;;1.27;0.70;;;;;;;;;;5053537;28;20064;-66
2023/10/08 09:59:53;;;;;;;0.55;0.50;;;;;;;;;;5067308;28;20060;-68
2023/10/08 10:02:22;;;;;;;1.35;0.90;;;;;;;;;;5054904;28;20032;-68
2023/10/08 10:04:52;;;;;;;3.58;0.80;;;;;;;;;;5051287;28;20029;-66
2023/10/08 10:07:19;;;;;;;1.40;0.70;;;;;;;;;;5052748;28;20025;-68
2023/10/08 10:09:48;;;;;;;0.70;0.60;;;;;;;;;;5053255;28;20070;-66
2023/10/08 10:12:25;;;;;;;1.27;0.80;;;;;;;;;;5050923;28;20043;-68
2023/10/08 10:14:55;;;;;;;1.83;0.90;;;;;;;;;;5051604;28;20071;-68
2023/10/08 10:17:25;;;;;;;2.45;0.90;;;;;;;;;;5053353;28;20068;-66
2023/10/08 10:20:00;;;;;;;1.73;0.80;;;;;;;;;;5052996;28;20382;-67
2023/10/08 10:22:31;;;;;;;4.55;0.70;;;;;;;;;;5052085;28;20068;-68
2023/10/08 10:24:57;;;;;;;0.73;0.50;;;;;;;;;;5050829;28;20025;-69
2023/10/08 10:27:24;;;;;;;0.77;0.57;;;;;;;;;;5051416;28;20067;-65
2023/10/08 10:29:49;;;;;;;0.82;0.55;;;;;;;;;;5067224;28;20039;-68
2023/10/08 10:32:16;;;;;;;2.42;0.60;;;;;;;;;;5058136;28;20037;-65
2023/10/08 10:34:47;;;;;;;2.63;0.68;;;;;;;;;;5061765;28;20099;-65
2023/10/08 10:37:23;;;;;;;1.65;0.90;;;;;;;;;;5059839;28;20032;-64
2023/10/08 10:39:56;;;;;;;1.17;0.60;;;;;;;;;;5060015;28;20036;-64
2023/10/08 10:42:26;;;;;;;1.63;0.90;;;;;;;;;;5063628;28;20425;-65
2023/10/08 10:44:53;;;;;;;2.40;0.93;;;;;;;;;;5068122;28;20021;-70
2023/10/08 10:49:53;;;;;;;1.08;0.70;;;;;;;;;;5064585;28;20037;-70
2023/10/08 10:52:44;;;;;;;1.25;0.80;;;;;;;;;;5055480;28;20059;-70
2023/10/08 10:57:55;;;;;;;0.95;0.70;;;;;;;;;;5060847;28;20033;-62
2023/10/08 11:03:45;;;;;;;2.03;1.42;;;;;;;;;;5057985;28;20385;-63
2023/10/08 11:05:59;;;;;;;1.40;0.80;;;;;;;;;;5058946;28;20103;-63
2023/10/08 11:08:26;;;;;;;1.23;0.75;;;;;;;;;;5067410;28;20040;-66
2023/10/08 11:10:53;;;;;;;1.05;0.80;;;;;;;;;;5071385;28;20099;-62
2023/10/08 11:13:20;;;;;;;0.82;0.70;;;;;;;;;;5071530;28;20056;-62
2023/10/08 11:15:49;;;;;;;1.73;0.80;;;;;;;;;;5072074;28;20035;-64
2023/10/08 11:18:20;;;;;;;1.10;0.70;;;;;;;;;;5070969;28;20032;-63
2023/10/08 11:20:51;;;;;;;2.22;0.70;;;;;;;;;;5071408;28;20032;-65
2023/10/08 11:23:41;;;;;;;1.98;0.80;;;;;;;;;;5070387;28;20032;-63
2023/10/08 11:26:06;;;;;;;;;;;;;;;;;;5057324;28;20393;-66
2023/10/08 11:28:34;;;;;;;0.73;0.60;;;;;;;;;;5051229;28;19913;-63
2023/10/08 11:31:10;;;;;;;1.30;0.75;;;;;;;;;;5051361;28;20025;-69
2023/10/08 11:33:42;;;;;;;2.05;0.70;;;;;;;;;;5051623;28;20112;-64
2023/10/08 11:36:19;;;;;;;1.05;0.60;;;;;;;;;;5051713;28;20025;-68
2023/10/08 11:38:50;;;;;;;2.28;0.80;;;;;;;;;;5052299;28;20029;-68
2023/10/08 11:41:22;;;;;;;2.75;0.57;;;;;;;;;;5063727;28;20355;-67
2023/10/08 11:43:58;;;;;;;0.75;0.60;;;;;;;;;;5070927;28;20032;-69
2023/10/08 11:46:38;;;;;;;1.13;0.57;;;;;;;;;;5069516;28;20111;-69
2023/10/08 11:49:04;;;;;;;1.70;0.60;;;;;;;;;;5052020;28;20478;-64
2023/10/08 11:51:34;;;;;;;1.02;0.60;;;;;;;;;;5051756;28;20115;-64
2023/10/08 11:54:06;;;;;;;0.98;0.70;;;;;;;;;;5052138;28;20470;-67
2023/10/08 11:56:33;;;;;;;0.75;0.70;;;;;;;;;;5051994;28;20036;-67
2023/10/08 11:59:05;;;;;;;1.77;0.80;;;;;;;;;;5053157;28;20032;-67
2023/10/08 12:01:35;;;;;;;1.17;0.63;;;;;;;;;;5071426;28;20024;-67
2023/10/08 12:04:00;;;;;;;1.38;0.60;;;;;;;;;;5075801;28;20027;-63
2023/10/08 12:06:29;;;;;;;2.35;0.60;;;;;;;;;;5075672;28;20032;-68
2023/10/08 12:08:58;;;;;;;1.30;0.60;;;;;;;;;;5075468;28;20032;-64
2023/10/08 12:11:30;;;;;;;0.98;0.55;;;;;;;;;;5075058;28;20028;-65
2023/10/08 12:13:58;;;;;;;0.98;0.70;;;;;;;;;;5075341;28;20466;-64
2023/10/08 12:16:26;;;;;;;1.60;0.63;;;;;;;;;;5074255;28;20035;-65
2023/10/08 12:18:58;;;;;;;1.05;0.60;;;;;;;;;;5075376;28;20032;-69
2023/10/08 12:21:31;;;;;;;1.48;0.75;;;;;;;;;;5075642;28;20398;-68
2023/10/08 12:24:01;;;;;;;0.98;0.70;;;;;;;;;;5075353;28;20024;-69
2023/10/08 12:26:26;;;;;;;2.25;0.90;;;;;;;;;;5060658;28;20029;-68
2023/10/08 12:28:53;;;;;;;1.08;0.70;;;;;;;;;;5055146;28;20048;-69
2023/10/08 12:31:22;;;;;;;1.65;0.88;;;;;;;;;;5055077;28;20025;-68
2023/10/08 12:33:53;;;;;;;0.82;0.47;;;;;;;;;;5054977;28;20025;-67
2023/10/08 12:36:22;;;;;;;1.30;0.50;;;;;;;;;;5055218;28;20029;-68
2023/10/08 12:38:49;;;;;;;2.40;0.77;;;;;;;;;;5054940;28;20033;-69
2023/10/08 12:41:14;;;;;;;1.40;0.63;;;;;;;;;;5065414;28;20024;-69
2023/10/08 12:43:52;;;;;;;2.25;0.60;;;;;;;;;;5074817;28;20031;-68
2023/10/08 12:46:18;;;;;;;2.15;0.82;;;;;;;;;;5073161;28;20041;-68
2023/10/08 12:48:52;;;;;;;1.88;0.80;;;;;;;;;;5054917;28;20100;-65
2023/10/08 12:51:18;;;;;;;5.43;1.08;;;;;;;;;;5054631;28;20375;-67
2023/10/08 12:53:50;;;;;;;1.48;0.73;;;;;;;;;;5054482;28;20036;-65
2023/10/08 12:56:17;;;;;;;0.77;0.60;;;;;;;;;;5054834;28;20096;-67
2023/10/08 12:58:48;;;;;;;6.05;1.15;;;;;;;;;;5053576;28;20028;-67
2023/10/08 13:01:19;;;;;;;1.13;0.63;;;;;;;;;;5056767;28;20454;-67
2023/10/08 13:03:48;;;;;;;2.75;0.60;;;;;;;;;;5074668;28;20465;-64
2023/10/08 13:06:30;;;;;;;3.10;0.98;;;;;;;;;;5074700;28;20100;-67
2023/10/08 13:08:58;;;;;;;0.68;0.50;;;;;;;;;;5074460;28;20078;-64
2023/10/08 13:11:29;;;;;;;0.65;0.57;;;;;;;;;;5074467;28;20086;-68
2023/10/08 13:13:56;;;;;;;;;;;;;;;;;;5074884;28;20058;-68
2023/10/08 13:16:23;;;;;;;1.02;0.60;;;;;;;;;;5074315;28;20010;-69
2023/10/08 13:18:49;;;;;;;1.08;0.70;;;;;;;;;;5074396;28;20028;-65
2023/10/08 13:21:15;;;;;;;1.50;0.70;;;;;;;;;;5074431;28;20032;-68
2023/10/08 13:23:41;;;;;;;1.23;0.60;;;;;;;;;;5073917;28;20077;-67
2023/10/08 13:26:07;;;;;;;3.97;0.80;;;;;;;;;;5060767;28;20025;-64
2023/10/08 13:28:36;;;;;;;1.33;0.60;;;;;;;;;;5054373;28;20025;-66
2023/10/08 13:31:09;;;;;;;0.77;0.60;;;;;;;;;;5054190;28;20028;-68
2023/10/08 13:33:38;;;;;;;3.10;0.90;;;;;;;;;;5054012;28;20029;-68
2023/10/08 13:36:10;;;;;;;1.63;0.52;;;;;;;;;;5053972;28;20039;-65
2023/10/08 13:38:37;;;;;;;2.65;0.80;;;;;;;;;;5052618;28;20033;-67
2023/10/08 13:41:06;;;;;;;1.60;0.77;;;;;;;;;;5063849;28;20024;-68
2023/10/08 13:43:35;;;;;;;1.73;0.80;;;;;;;;;;5073687;28;20016;-68
2023/10/08 13:46:04;;;;;;;1.40;0.82;;;;;;;;;;5073727;28;20539;-68
2023/10/08 13:48:34;;;;;;;1.35;0.70;;;;;;;;;;5053332;28;20424;-68
2023/10/08 13:51:04;;;;;;;2.75;0.90;;;;;;;;;;5053194;28;20517;-67
2023/10/08 13:53:31;;;;;;;1.25;0.70;;;;;;;;;;5053658;28;20057;-68
2023/10/08 13:56:04;;;;;;;1.70;0.80;;;;;;;;;;5053555;28;20037;-66
2023/10/08 13:58:30;;;;;;;3.45;0.90;;;;;;;;;;5053539;28;20021;-68
2023/10/08 14:01:00;;;;;;;1.25;0.70;;;;;;;;;;5053492;28;20563;-69
2023/10/08 14:03:30;;;;;;;1.55;0.80;;;;;;;;;;5070350;28;20084;-66
2023/10/08 14:06:04;;;;;;;2.38;1.20;;;;;;;;;;5073265;28;20033;-69
2023/10/08 14:08:30;;;;;;;2.22;1.10;;;;;;;;;;5073543;28;20048;-68
2023/10/08 14:11:02;;;;;;;3.40;0.88;;;;;;;;;;5073188;28;20032;-68
2023/10/08 14:13:29;;;;;;;0.50;0.40;;;;;;;;;;5073392;28;20028;-64
2023/10/08 14:15:55;;;;;;;1.42;0.57;;;;;;;;;;5073328;28;20029;-68
2023/10/08 14:18:29;;;;;;;0.80;0.60;;;;;;;;;;5073206;28;20535;-64
2023/10/08 14:20:55;;;;;;;1.10;0.60;;;;;;;;;;5072933;28;20028;-68
2023/10/08 14:23:25;;;;;;;1.90;0.70;;;;;;;;;;5073244;28;20413;-69
2023/10/08 14:25:55;;;;;;;2.30;1.13;;;;;;;;;;5063454;28;20032;-68
2023/10/08 14:28:39;;;;;;;1.55;0.85;;;;;;;;;;5053138;28;20393;-69
2023/10/08 14:31:05;;;;;;;1.50;0.90;;;;;;;;;;5052937;28;20125;-68
2023/10/08 14:33:41;;;;;;;2.08;0.70;;;;;;;;;;5052759;28;20032;-66
2023/10/08 14:44:19;;;;;;;3.22;0.85;;;;;;;;;;5072998;28;20034;-68
2023/10/08 14:46:44;;;;;;;2.55;1.15;;;;;;;;;;5067392;28;20025;-68
2023/10/08 14:49:10;;;;;;;1.50;0.88;;;;;;;;;;5052568;28;20072;-65
2023/10/08 14:51:37;;;;;;;1.20;0.75;;;;;;;;;;5052420;28;20110;-66
2023/10/08 14:54:06;;;;;;;1.67;0.80;;;;;;;;;;5052763;28;20078;-66
2023/10/08 14:56:32;;;;;;;1.35;0.80;;;;;;;;;;5052822;28;20025;-64
2023/10/08 14:58:58;;;;;;;1.75;0.95;;;;;;;;;;5053045;28;20032;-65
2023/10/08 15:01:25;;;;;;;3.72;1.13;;;;;;;;;;5052332;28;20490;-68
2023/10/08 15:03:52;;;;;;;2.90;1.20;;;;;;;;;;5071392;28;20043;-65
2023/10/08 15:06:19;;;;;;;3.45;1.00;;;;;;;;;;5072718;28;20078;-66
2023/10/08 15:08:44;;;;;;;2.40;1.13;;;;;;;;;;5072737;28;20094;-64
2023/10/08 15:11:10;;;;;;;1.85;1.17;;;;;;;;;;5072568;28;20024;-65
2023/10/08 15:13:38;;;;;;;2.88;1.02;;;;;;;;;;5072548;28;20025;-69
2023/10/08 15:16:04;;;;;;;2.35;1.10;;;;;;;;;;5072648;28;20024;-66
2023/10/08 15:18:31;;;;;;;1.85;0.93;;;;;;;;;;5071136;28;20115;-64
2023/10/08 15:21:04;;;;;;;1.73;1.02;;;;;;;;;;5072488;28;20067;-67
2023/10/08 15:23:29;;;;;;;2.33;1.10;;;;;;;;;;5072339;28;20028;-67
2023/10/08 15:25:54;;;;;;;2.70;1.17;;;;;;;;;;5062206;28;20021;-67
2023/10/08 15:28:20;;;;;;;2.72;0.98;;;;;;;;;;5052090;28;20363;-68
2023/10/08 15:30:46;;;;;;;2.42;1.20;;;;;;;;;;5052446;28;20032;-68
2023/10/08 15:33:12;;;;;;;3.67;1.20;;;;;;;;;;5051944;28;20032;-69
2023/10/08 15:35:40;;;;;;;2.20;1.10;;;;;;;;;;5055823;28;20021;-66
2023/10/08 15:38:05;;;;;;;2.55;1.15;;;;;;;;;;5056112;28;20033;-68
2023/10/08 15:40:33;;;;;;;2.55;1.40;;;;;;;;;;5061730;28;20129;-69
2023/10/08 15:42:58;;;;;;;6.68;1.67;;;;;;;;;;5075961;28;20021;-70
2023/10/08 15:45:24;;;;;;;4.22;2.10;;;;;;;;;;5075989;28;20025;-68
2023/10/08 15:47:51;;;;;;;5.40;2.25;;;;;;;;;;5061135;28;20021;-68
2023/10/08 15:50:20;;;;;;;5.68;3.03;;;;;;;;;;5055834;28;20036;-68
2023/10/08 15:52:47;;;;;;;6.78;3.75;;;;;;;;;;5054570;28;20045;-65
2023/10/08 15:55:13;;;;;;;6.63;3.50;;;;;;;;;;5055944;28;20029;-66
2023/10/08 15:57:39;;;;;;;5.40;2.58;;;;;;;;;;5055865;28;20513;-64
2023/10/08 16:00:07;;;;;;;5.63;2.75;;;;;;;;;;5055786;28;20032;-69
2023/10/08 16:02:33;;;;;;;5.20;2.63;;;;;;;;;;5060558;28;20028;-66
2023/10/08 16:04:58;;;;;;;7.68;2.83;;;;;;;;;;5075726;28;20032;-69
2023/10/08 16:07:24;;;;;;;8.80;4.28;;;;;;;;;;5075663;28;20081;-68
2023/10/08 16:09:49;;;;;;;8.63;4.35;;;;;;;;;;5075626;28;20021;-64
2023/10/08 16:12:15;;;;;;;7.75;3.80;;;;;;;;;;5075349;28;20119;-67
2023/10/08 16:14:41;;;;;;;9.20;3.53;;;;;;;;;;5075500;28;20024;-64
2023/10/08 16:17:09;;;;;;;6.53;3.20;;;;;;;;;;5075466;28;20025;-64
2023/10/08 16:19:36;;;;;;;6.55;3.20;;;;;;;;;;5075718;28;20030;-65